Flight Track Log - Related Links

Times and Time Zones

All times are in EDT time to prevent confusion due to time zone crossing. See the SWA417 flight status page for this flight to view local times or setup timezone preferences in your user account.

Time Position Orientation Groundspeed Altitude Reporting Facility
EDT Latitude Longitude Course Direction KTS MPH feet Rate Location/Type
Sun 03:53:08 PM 36.0747 -115.1714 263° West 163 188 3,300  Level Los Angeles Center
Sun 03:54:15 PM 36.0675 -115.2481 263° West 226 260 5,600 1,914 Climbing Los Angeles Center
Sun 03:55:04 PM 36.0242 -115.2761 208° Southwest 230 265 7,000 757 Climbing Los Angeles Center
Sun 03:56:06 PM 35.9581 -115.3139 205° Southwest 248 285 7,000 1,306 Level Los Angeles Center
Sun 03:57:08 PM 35.9000 -115.3875 226° Southwest 279 321 9,700 2,758 Climbing Los Angeles Center
Sun 03:58:10 PM 35.8869 -115.4861 261° West 297 342 12,700 2,758 Climbing Los Angeles Center
Sun 03:59:12 PM 35.8894 -115.6131 271° West 338 389 15,400 2,758 Climbing Los Angeles Center
Sun 04:00:14 PM 35.8917 -115.7569 271° West 389 448 18,400 1,839 Climbing Los Angeles Center
Sun 04:01:16 PM 35.8947 -115.8964 272° West 404 465 19,200 1,645 Climbing Los Angeles Center
Sun 04:02:18 PM 35.9600 -116.0036 307° West 387 445 21,800 2,516 Climbing Los Angeles Center
Sun 04:03:20 PM 36.0483 -116.1089 316° Northwest 411 473 24,400 2,352 Climbing Los Angeles Center
Sun 04:04:23 PM 36.1308 -116.2114 315° West 418 481 26,700 2,016 Climbing Los Angeles Center
Sun 04:05:25 PM 36.2150 -116.3133 316° Northwest 427 491 28,600 2,226 Climbing Los Angeles Center
Sun 04:06:27 PM 36.3031 -116.4211 315° West 440 506 31,300 2,565 Climbing Los Angeles Center
Sun 04:07:29 PM 36.3864 -116.5250 315° West 430 495 33,900 1,306 Climbing Los Angeles Center
Sun 04:08:31 PM 36.4847 -116.6456 315° West 418 481 34,000 48 Climbing Los Angeles Center
Sun 04:09:33 PM 36.5725 -116.7511 316° Northwest 419 482 34,000  Level Los Angeles Center
Sun 04:10:35 PM 36.6714 -116.8272 328° Northwest 418 481 34,000  Level Los Angeles Center
Sun 04:11:37 PM 36.7636 -116.8975 329° Northwest 413 475 34,000  Level Los Angeles Center
Sun 04:12:39 PM 36.8686 -116.9767 329° Northwest 415 478 34,000  Level Los Angeles Center
Sun 04:13:41 PM 36.9686 -117.0503 330° Northwest 416 479 34,000  Level Los Angeles Center
Sun 04:14:44 PM 37.0897 -117.1322 332° Northwest 413 475 34,000  Level Los Angeles Center
Sun 04:15:46 PM 37.1908 -117.2028 331° Northwest 415 478 34,000  Level Los Angeles Center
Sun 04:16:48 PM 37.2931 -117.2722 332° Northwest 415 478 34,000  Level Los Angeles Center
Sun 04:17:50 PM 37.3950 -117.3444 331° Northwest 418 481 34,000  Level Los Angeles Center
Sun 04:18:58 PM 37.5164 -117.4281 331° Northwest 417 480 34,000  Level Oakland Center
Sun 04:20:00 PM 37.6178 -117.5003 331° Northwest 418 481 34,000  Level Oakland Center
Sun 04:21:01 PM 37.7197 -117.5708 331° Northwest 415 478 34,000  Level Oakland Center
Sun 04:22:02 PM 37.8225 -117.6428 331° Northwest 418 481 34,000  Level Oakland Center
Sun 04:23:03 PM 37.9233 -117.7142 331° Northwest 413 475 34,000  Level Oakland Center
Sun 04:24:05 PM 38.0239 -117.7911 329° Northwest 417 480 34,000  Level Oakland Center
Sun 04:25:06 PM 38.1086 -117.8953 316° Northwest 419 482 34,000 -49 Level Oakland Center
Sun 04:26:07 PM 38.1939 -117.9983 316° Northwest 420 483 33,900 -585 Descending Oakland Center
Sun 04:27:09 PM 38.2886 -118.1128 317° Northwest 420 483 32,800 -976 Descending Oakland Center
Sun 04:28:10 PM 38.3742 -118.2164 317° Northwest 423 487 31,900 -934 Descending Oakland Center
Sun 04:29:11 PM 38.4608 -118.3211 317° Northwest 428 493 30,900 -976 Descending Oakland Center
Sun 04:30:13 PM 38.5481 -118.4281 316° Northwest 433 498 29,900 -976 Descending Oakland Center
Sun 04:31:14 PM 38.6358 -118.5364 316° Northwest 436 502 28,900 -927 Descending Oakland Center
Sun 04:32:16 PM 38.7233 -118.6436 316° Northwest 435 501 28,000 -439 Descending Oakland Center
Sun 04:33:17 PM 38.8092 -118.7489 316° Northwest 427 491 28,000  Level Oakland Center
Sun 04:34:18 PM 38.8942 -118.8564 315° West 426 490 28,000 -244 Level Oakland Center
Sun 04:35:20 PM 38.9789 -118.9611 316° Northwest 420 483 27,500 -1,317 Descending Oakland Center
Sun 04:36:21 PM 39.0631 -119.0664 316° Northwest 419 482 25,300 -2,439 Descending Oakland Center
Sun 04:37:23 PM 39.1603 -119.1878 316° Northwest 405 466 22,500 -2,390 Descending Oakland Center
Sun 04:38:24 PM 39.2369 -119.2850 316° Northwest 388 447 20,400 -2,195 Descending Oakland Center
Sun 04:39:26 PM 39.3128 -119.3806 316° Northwest 381 438 18,000 -2,244 Descending Oakland Center
Sun 04:40:27 PM 39.3861 -119.4733 316° Northwest 371 427 15,800 -2,488 Descending Oakland Center
Sun 04:41:29 PM 39.4569 -119.5614 316° Northwest 358 412 12,900 -2,761 Descending Oakland Center
Sun 04:42:20 PM 39.5167 -119.6333 317° Northwest 331 381 10,600 -1,487 Descending Northern Cal TRACON
Sun 04:43:26 PM 39.6000 -119.6667 343° North 263 303 10,000 -300 Descending Northern Cal TRACON
Sun 04:44:20 PM 39.6500 -119.6833 346° North 189 217 10,000 -947 Level Northern Cal TRACON
Sun 04:45:20 PM 39.6500 -119.7333 270° West 157 181 8,200 -1,667 Descending Northern Cal TRACON
Sun 04:46:26 PM 39.6167 -119.7667 218° Southwest 146 168 6,500 -1,238 Descending Northern Cal TRACON
Sun 04:47:26 PM 39.5667 -119.7833 194° South 153 176 5,600 -789 Descending Northern Cal TRACON
Sun 04:48:20 PM 39.5333 -119.7667 159° South 153 176 5,000 -667 Descending Northern Cal TRACON
Sun 04:50:00 PM 39.4991 -119.7681 194° South  Level Estimated

Login

Don't have an account? Register now (free) for customized features, flight alerts, and more!